Station Historical Data
Daily Summary for May 1, 2012 Units:  Metric    English   Both
« Previous Day
Next Day »
Daily Weekly Monthly Yearly Custom
  High: Low: Average:
Temperature: 29.7 °C 16.4 °C 23.7 °C
Dew Point: 20.3 °C 15.1 °C 17.8 °C
Humidity: 92% 49% 71%
Wind Speed: 17.7km/h 0km/h 5.5km/h
Wind Gust: 24.1km/h - -
Wind- - South
Pressure: 1017.5 hPa 1013.1 hPa -
Precipitation: 0 mm    
Historical Graphs
 
 
Tabular Data for May 1, 2012
Time Temperature Dew Point Pressure Wind Wind Speed Wind Gust Humidity Rainfall Rate (Hourly) Conditions
00:00 21.5 °C 17.5 °C 1015.5 hPa Calm   1.6 km/h 78% 0 mm
00:01 21.4 °C 17.4 °C 1015.5 hPa SE 1.6 km/h 1.6 km/h 78% 0 mm
00:06 21.3 °C 17.5 °C 1015.5 hPa SE 1.6 km/h 3.2 km/h 79% 0 mm
00:11 21.3 °C 17.5 °C 1015.5 hPa SE 1.6 km/h 3.2 km/h 79% 0 mm
00:16 21 °C 17.2 °C 1015.5 hPa SE 1.6 km/h 3.2 km/h 79% 0 mm
00:21 20.8 °C 17.3 °C 1015.1 hPa SE 1.6 km/h 1.6 km/h 80% 0 mm
00:26 20.7 °C 17.2 °C 1015.1 hPa SE 1.6 km/h 3.2 km/h 80% 0 mm
00:31 20.6 °C 17.1 °C 1015.1 hPa SE 1.6 km/h 3.2 km/h 80% 0 mm
00:36 20.7 °C 17.1 °C 1015.1 hPa SSE 3.2 km/h 3.2 km/h 80% 0 mm
00:41 20.7 °C 17.1 °C 1015.1 hPa SE 3.2 km/h 4.8 km/h 80% 0 mm
00:46 20.7 °C 17.1 °C 1014.8 hPa SSE 3.2 km/h 4.8 km/h 80% 0 mm
00:51 20.9 °C 17.2 °C 1014.8 hPa SE 4.8 km/h 6.4 km/h 79% 0 mm
00:56 21.1 °C 17.1 °C 1014.8 hPa ESE 4.8 km/h 4.8 km/h 78% 0 mm
01:01 21.1 °C 17.1 °C 1014.8 hPa SE 6.4 km/h 8 km/h 78% 0 mm
01:06 21.1 °C 17.1 °C 1014.4 hPa SE 4.8 km/h 6.4 km/h 78% 0 mm
01:11 20.9 °C 16.9 °C 1014.4 hPa SE 3.2 km/h 6.4 km/h 78% 0 mm
01:16 20.8 °C 16.8 °C 1014.8 hPa SE 3.2 km/h 4.8 km/h 78% 0 mm
01:21 20.7 °C 16.7 °C 1014.8 hPa SE 3.2 km/h 4.8 km/h 78% 0 mm
01:26 20.6 °C 16.8 °C 1014.8 hPa SE 3.2 km/h 4.8 km/h 79% 0 mm
01:31 20.6 °C 16.8 °C 1014.8 hPa SSE 3.2 km/h 6.4 km/h 79% 0 mm
01:36 20.5 °C 16.7 °C 1014.8 hPa SSE 3.2 km/h 4.8 km/h 79% 0 mm
01:41 20.4 °C 16.7 °C 1014.4 hPa SE 6.4 km/h 6.4 km/h 79% 0 mm
01:46 20.5 °C 16.7 °C 1014.4 hPa SE 4.8 km/h 6.4 km/h 79% 0 mm
01:51 20.7 °C 16.7 °C 1014.4 hPa SE 4.8 km/h 6.4 km/h 78% 0 mm
01:52 20.7 °C 16.7 °C 1014.4 hPa SE 3.2 km/h 6.4 km/h 78% 0 mm
01:57 20.7 °C 16.7 °C 1014.8 hPa SE 3.2 km/h 4.8 km/h 78% 0 mm
02:02 20.6 °C 16.6 °C 1014.8 hPa SE 3.2 km/h 3.2 km/h 78% 0 mm
02:07 20.4 °C 16.6 °C 1014.4 hPa SSE 1.6 km/h 4.8 km/h 79% 0 mm
02:12 20.3 °C 16.5 °C 1014.8 hPa South 3.2 km/h 8 km/h 79% 0 mm
02:17 20.3 °C 16.5 °C 1014.8 hPa SSE 1.6 km/h 4.8 km/h 79% 0 mm
02:22 20.2 °C 16.4 °C 1014.4 hPa SSE 1.6 km/h 1.6 km/h 79% 0 mm
02:27 20.1 °C 16.6 °C 1014.8 hPa SE 3.2 km/h 3.2 km/h 80% 0 mm
02:32 20 °C 16.4 °C 1014.8 hPa SE 1.6 km/h 3.2 km/h 80% 0 mm
02:37 19.9 °C 16.4 °C 1014.8 hPa Calm   1.6 km/h 80% 0 mm
02:42 19.7 °C 16.2 °C 1014.8 hPa Calm     80% 0 mm
02:47 19.5 °C 16.3 °C 1014.8 hPa Calm     82% 0 mm
02:52 19.4 °C 16.4 °C 1014.8 hPa Calm     83% 0 mm
02:57 19.4 °C 16.4 °C 1014.8 hPa Calm   1.6 km/h 83% 0 mm
03:02 19.3 °C 16.4 °C 1015.1 hPa Calm     83% 0 mm
03:07 19.3 °C 16.3 °C 1015.1 hPa Calm   1.6 km/h 83% 0 mm
03:12 19.3 °C 16.3 °C 1014.8 hPa Calm   1.6 km/h 83% 0 mm
03:18 19 °C 16.1 °C 1015.1 hPa SE 3.2 km/h 3.2 km/h 83% 0 mm
03:23 18.3 °C 15.8 °C 1015.1 hPa NNW 3.2 km/h 3.2 km/h 85% 0 mm
03:28 18 °C 15.8 °C 1015.1 hPa North 1.6 km/h 3.2 km/h 87% 0 mm
03:33 17.9 °C 15.9 °C 1015.1 hPa North 1.6 km/h 3.2 km/h 88% 0 mm
03:38 17.7 °C 15.9 °C 1015.1 hPa NNW 1.6 km/h 1.6 km/h 89% 0 mm
03:43 17.7 °C 15.8 °C 1015.5 hPa Calm     89% 0 mm
03:48 17.6 °C 15.8 °C 1015.5 hPa Calm     89% 0 mm
03:53 17.5 °C 15.7 °C 1015.5 hPa Calm     89% 0 mm
03:58 17.4 °C 15.7 °C 1015.8 hPa Calm     90% 0 mm
04:04 17.2 °C 15.6 °C 1015.8 hPa Calm     90% 0 mm
04:09 17.2 °C 15.7 °C 1015.8 hPa Calm     91% 0 mm
04:14 17.2 °C 15.7 °C 1015.8 hPa NNW 1.6 km/h 1.6 km/h 91% 0 mm
04:19 17.1 °C 15.6 °C 1015.8 hPa NNW 1.6 km/h 3.2 km/h 91% 0 mm
04:24 17 °C 15.5 °C 1015.8 hPa Calm   1.6 km/h 91% 0 mm
04:29 17.2 °C 15.8 °C 1016.1 hPa Calm     92% 0 mm
04:34 17.3 °C 15.9 °C 1016.1 hPa Calm     92% 0 mm
04:39 17.4 °C 15.9 °C 1016.1 hPa Calm     91% 0 mm
04:44 17.7 °C 16 °C 1016.1 hPa Calm     90% 0 mm
04:49 17.8 °C 16.2 °C 1016.1 hPa Calm     90% 0 mm
04:54 17.8 °C 16 °C 1016.1 hPa Calm     89% 0 mm
04:59 17.7 °C 15.9 °C 1015.8 hPa Calm     89% 0 mm
05:04 17.6 °C 15.9 °C 1015.8 hPa Calm     90% 0 mm
05:09 17.6 °C 15.9 °C 1015.8 hPa Calm     90% 0 mm
05:14 17.4 °C 15.8 °C 1016.1 hPa Calm     90% 0 mm
05:19 17.3 °C 15.6 °C 1015.8 hPa Calm     90% 0 mm
05:24 17.1 °C 15.4 °C 1016.1 hPa Calm     90% 0 mm
05:29 16.9 °C 15.4 °C 1016.1 hPa Calm     91% 0 mm
05:34 16.8 °C 15.3 °C 1016.1 hPa Calm     91% 0 mm
05:39 17 °C 15.7 °C 1015.8 hPa East 3.2 km/h 3.2 km/h 92% 0 mm
05:45 17.2 °C 15.9 °C 1015.8 hPa East 1.6 km/h 3.2 km/h 92% 0 mm
05:50 17.4 °C 15.9 °C 1015.8 hPa East 1.6 km/h 1.6 km/h 91% 0 mm
05:55 17.6 °C 15.9 °C 1015.8 hPa Calm   1.6 km/h 90% 0 mm
06:00 17.7 °C 16 °C 1015.8 hPa Calm   1.6 km/h 90% 0 mm
06:05 17.6 °C 15.9 °C 1015.8 hPa Calm   1.6 km/h 90% 0 mm
06:10 17.4 °C 15.7 °C 1015.8 hPa Calm     90% 0 mm
06:15 17.2 °C 15.6 °C 1015.8 hPa Calm     90% 0 mm
06:20 17.2 °C 15.7 °C 1015.8 hPa East 3.2 km/h 3.2 km/h 91% 0 mm
06:25 17.1 °C 15.4 °C 1015.8 hPa Calm   3.2 km/h 90% 0 mm
06:30 16.7 °C 15.1 °C 1015.8 hPa ESE 1.6 km/h 1.6 km/h 90% 0 mm
06:35 16.7 °C 15.3 °C 1015.8 hPa Calm   1.6 km/h 91% 0 mm
06:40 16.7 °C 15.3 °C 1016.1 hPa Calm   1.6 km/h 91% 0 mm
06:45 16.8 °C 15.4 °C 1016.1 hPa Calm   1.6 km/h 92% 0 mm
06:50 16.7 °C 15.2 °C 1016.1 hPa Calm     91% 0 mm
06:55 16.6 °C 15.1 °C 1016.1 hPa Calm     91% 0 mm
07:00 16.4 °C 15.2 °C 1016.1 hPa Calm     92% 0 mm
07:05 16.4 °C 15.2 °C 1016.5 hPa Calm     92% 0 mm
07:10 16.4 °C 15.1 °C 1016.5 hPa Calm     92% 0 mm
07:15 16.4 °C 15.2 °C 1016.5 hPa Calm     92% 0 mm
07:20 16.6 °C 15.3 °C 1016.5 hPa Calm     92% 0 mm
07:25 16.7 °C 15.4 °C 1016.5 hPa Calm     92% 0 mm
07:30 16.9 °C 15.6 °C 1016.5 hPa Calm     92% 0 mm
07:35 17.2 °C 15.7 °C 1016.5 hPa Calm     91% 0 mm
07:40 17.4 °C 15.9 °C 1016.8 hPa ESE 3.2 km/h 3.2 km/h 91% 0 mm
07:45 17.7 °C 16.1 °C 1016.8 hPa SE 3.2 km/h 6.4 km/h 90% 0 mm
07:50 18.1 °C 16.2 °C 1016.8 hPa SE 3.2 km/h 3.2 km/h 89% 0 mm
07:55 18.4 °C 16.4 °C 1016.8 hPa ESE 3.2 km/h 3.2 km/h 88% 0 mm
08:00 18.7 °C 16.7 °C 1016.5 hPa ESE 1.6 km/h 3.2 km/h 88% 0 mm
08:05 18.8 °C 16.6 °C 1016.8 hPa ESE 1.6 km/h 3.2 km/h 87% 0 mm
08:10 19 °C 16.8 °C 1016.8 hPa SE 1.6 km/h 4.8 km/h 87% 0 mm
08:15 19.3 °C 17.1 °C 1016.8 hPa SSE 3.2 km/h 4.8 km/h 87% 0 mm
08:21 19.6 °C 17.2 °C 1016.8 hPa SE 3.2 km/h 4.8 km/h 86% 0 mm
08:26 19.8 °C 17.4 °C 1016.8 hPa SSE 3.2 km/h 3.2 km/h 86% 0 mm
08:31 20 °C 17.4 °C 1016.8 hPa SSE 6.4 km/h 6.4 km/h 85% 0 mm
08:36 20.1 °C 17.3 °C 1016.8 hPa SE 4.8 km/h 9.7 km/h 84% 0 mm
08:41 20.3 °C 17.3 °C 1016.8 hPa SSE 8 km/h 11.3 km/h 83% 0 mm
08:46 20.6 °C 17.6 °C 1016.8 hPa SSE 9.7 km/h 9.7 km/h 83% 0 mm
08:51 20.8 °C 17.6 °C 1016.8 hPa SE 11.3 km/h 11.3 km/h 82% 0 mm
08:56 20.9 °C 17.6 °C 1016.8 hPa SE 9.7 km/h 9.7 km/h 81% 0 mm
09:01 21.1 °C 17.7 °C 1016.8 hPa SE 4.8 km/h 9.7 km/h 81% 0 mm
09:06 21.3 °C 18.1 °C 1016.8 hPa SSE 6.4 km/h 8 km/h 82% 0 mm
09:11 21.6 °C 18.2 °C 1016.8 hPa SSE 6.4 km/h 8 km/h 81% 0 mm
09:16 21.8 °C 18.2 °C 1016.8 hPa SE 4.8 km/h 9.7 km/h 80% 0 mm
09:21 22 °C 18.4 °C 1016.8 hPa SSE 8 km/h 8 km/h 80% 0 mm
09:26 22.2 °C 18.6 °C 1016.8 hPa SSE 9.7 km/h 11.3 km/h 80% 0 mm
09:31 22.4 °C 18.4 °C 1017.2 hPa SSE 3.2 km/h 9.7 km/h 78% 0 mm
09:36 22.6 °C 18.5 °C 1017.2 hPa SSW 4.8 km/h 9.7 km/h 78% 0 mm
09:41 22.8 °C 18.7 °C 1017.2 hPa SE 6.4 km/h 6.4 km/h 78% 0 mm
09:46 23.1 °C 18.8 °C 1017.2 hPa SSE 4.8 km/h 8 km/h 77% 0 mm
09:51 23.4 °C 19.2 °C 1017.2 hPa South 6.4 km/h 9.7 km/h 77% 0 mm
09:56 23.8 °C 19.1 °C 1017.2 hPa SW 4.8 km/h 9.7 km/h 75% 0 mm
10:01 24 °C 19.3 °C 1017.2 hPa SW 6.4 km/h 9.7 km/h 75% 0 mm
10:06 24.2 °C 18.8 °C 1017.2 hPa SSW 4.8 km/h 14.5 km/h 72% 0 mm
10:11 24.5 °C 19.3 °C 1017.2 hPa SW 6.4 km/h 9.7 km/h 73% 0 mm
10:16 24.8 °C 19.9 °C 1017.2 hPa WSW 4.8 km/h 9.7 km/h 74% 0 mm
10:21 25 °C 19.6 °C 1017.2 hPa WSW 12.9 km/h 12.9 km/h 72% 0 mm
10:26 25.1 °C 19.3 °C 1017.2 hPa SW 9.7 km/h 16.1 km/h 70% 0 mm
10:31 25.2 °C 19.6 °C 1017.2 hPa WSW 6.4 km/h 14.5 km/h 71% 0 mm
10:36 25.2 °C 19.6 °C 1017.5 hPa SSW 9.7 km/h 17.7 km/h 71% 0 mm
10:41 25.2 °C 19.6 °C 1017.5 hPa SSW 11.3 km/h 16.1 km/h 71% 0 mm
10:46 25.4 °C 20 °C 1017.5 hPa SW 12.9 km/h 17.7 km/h 72% 0 mm
10:51 25.6 °C 19.7 °C 1017.5 hPa SW 9.7 km/h 17.7 km/h 70% 0 mm
10:56 25.8 °C 19.9 °C 1017.5 hPa SW 11.3 km/h 14.5 km/h 70% 0 mm
11:01 26.1 °C 20.2 °C 1017.5 hPa SW 6.4 km/h 12.9 km/h 70% 0 mm
11:06 26.2 °C 20.3 °C 1017.5 hPa WSW 9.7 km/h 12.9 km/h 70% 0 mm
11:11 26.5 °C 20.1 °C 1017.5 hPa SW 14.5 km/h 19.3 km/h 68% 0 mm
11:16 26.7 °C 20.3 °C 1017.5 hPa WSW 6.4 km/h 12.9 km/h 68% 0 mm
11:21 26.8 °C 19.9 °C 1017.5 hPa WSW 11.3 km/h 16.1 km/h 66% 0 mm
11:26 26.9 °C 20.3 °C 1017.2 hPa SSW 12.9 km/h 12.9 km/h 67% 0 mm
11:31 27.2 °C 19.8 °C 1017.5 hPa SW 12.9 km/h 17.7 km/h 64% 0 mm
11:37 27.2 °C 19.8 °C 1017.5 hPa SSW 11.3 km/h 19.3 km/h 64% 0 mm
11:42 27.2 °C 19.8 °C 1017.5 hPa SSW 14.5 km/h 20.9 km/h 64% 0 mm
11:47 27.2 °C 19.6 °C 1017.5 hPa SW 17.7 km/h 22.5 km/h 63% 0 mm
11:52 27.1 °C 19.7 °C 1017.5 hPa West 14.5 km/h 19.3 km/h 64% 0 mm
11:57 26.9 °C 19.3 °C 1017.5 hPa West 8 km/h 17.7 km/h 63% 0 mm
12:02 26.9 °C 19.8 °C 1017.5 hPa WSW 11.3 km/h 17.7 km/h 65% 0 mm
12:07 27.2 °C 19.6 °C 1017.5 hPa SW 11.3 km/h 17.7 km/h 63% 0 mm
12:12 27.4 °C 20 °C 1017.2 hPa WSW 16.1 km/h 17.7 km/h 64% 0 mm
12:17 27.4 °C 19.5 °C 1017.5 hPa SSW 9.7 km/h 20.9 km/h 62% 0 mm
12:22 27.4 °C 19.5 °C 1017.2 hPa SW 16.1 km/h 24.1 km/h 62% 0 mm
12:27 27.6 °C 19.4 °C 1017.2 hPa SSW 11.3 km/h 20.9 km/h 61% 0 mm
12:32 27.9 °C 19.9 °C 1016.8 hPa SW 8 km/h 17.7 km/h 62% 0 mm
12:37 28 °C 19.3 °C 1016.8 hPa SW 17.7 km/h 17.7 km/h 59% 0 mm
12:42 27.7 °C 19.2 °C 1016.8 hPa SW 12.9 km/h 20.9 km/h 60% 0 mm
12:47 27.6 °C 18.9 °C 1016.8 hPa SW 11.3 km/h 19.3 km/h 59% 0 mm
12:52 28 °C 20.1 °C 1016.8 hPa SW 4.8 km/h 19.3 km/h 62% 0 mm
12:57 28.3 °C 19.3 °C 1016.5 hPa SW 17.7 km/h 17.7 km/h 58% 0 mm
13:02 28.3 °C 18.7 °C 1016.5 hPa WSW 11.3 km/h 17.7 km/h 56% 0 mm
13:07 28.2 °C 18.3 °C 1016.5 hPa WSW 16.1 km/h 20.9 km/h 55% 0 mm
13:12 28.4 °C 18.8 °C 1016.1 hPa West 17.7 km/h 17.7 km/h 56% 0 mm
13:17 28.5 °C 19.4 °C 1016.1 hPa SW 9.7 km/h 16.1 km/h 58% 0 mm
13:22 28.6 °C 18.7 °C 1016.1 hPa SSE 16.1 km/h 16.1 km/h 55% 0 mm
13:27 28.8 °C 19.1 °C 1016.1 hPa WSW 11.3 km/h 17.7 km/h 56% 0 mm
13:32 28.9 °C 17.7 °C 1016.1 hPa SSE 8 km/h 20.9 km/h 51% 0 mm
13:37 28.6 °C 18.1 °C 1016.1 hPa SSW 9.7 km/h 19.3 km/h 53% 0 mm
13:43 28.6 °C 19 °C 1015.8 hPa SSE 12.9 km/h 14.5 km/h 56% 0 mm
13:47 28.9 °C 18.7 °C 1016.1 hPa WSW 9.7 km/h 16.1 km/h 54% 0 mm
13:53 28.8 °C 18.3 °C 1015.8 hPa SW 9.7 km/h 16.1 km/h 53% 0 mm
13:58 28.6 °C 18.3 °C 1015.8 hPa SW 12.9 km/h 14.5 km/h 54% 0 mm
14:03 28.6 °C 18.9 °C 1015.8 hPa SW 12.9 km/h 14.5 km/h 56% 0 mm
14:08 28.6 °C 18.9 °C 1015.8 hPa SSE 8 km/h 11.3 km/h 56% 0 mm
14:13 28.9 °C 19 °C 1015.8 hPa SW 11.3 km/h 20.9 km/h 55% 0 mm
14:18 28.9 °C 19.3 °C 1015.5 hPa SSW 11.3 km/h 16.1 km/h 56% 0 mm
14:23 28.9 °C 18.7 °C 1015.5 hPa WSW 4.8 km/h 11.3 km/h 54% 0 mm
14:28 29.3 °C 19.1 °C 1015.5 hPa SSE 11.3 km/h 19.3 km/h 54% 0 mm
14:33 29.2 °C 18.1 °C 1015.5 hPa SW 16.1 km/h 17.7 km/h 51% 0 mm
14:38 29.3 °C 18.8 °C 1015.5 hPa SSE 9.7 km/h 19.3 km/h 53% 0 mm
14:43 29 °C 18.2 °C 1015.5 hPa SE 14.5 km/h 16.1 km/h 52% 0 mm
14:48 28.6 °C 18.4 °C 1015.1 hPa South 9.7 km/h 16.1 km/h 54% 0 mm
14:53 28.8 °C 18.3 °C 1015.1 hPa SW 16.1 km/h 17.7 km/h 53% 0 mm
14:58 29.2 °C 18.4 °C 1015.1 hPa SSW 11.3 km/h 19.3 km/h 52% 0 mm
15:03 29.4 °C 17.6 °C 1015.1 hPa SSW 16.1 km/h 17.7 km/h 49% 0 mm
15:08 29.3 °C 17.8 °C 1015.1 hPa SSE 8 km/h 14.5 km/h 50% 0 mm
15:13 29.1 °C 18.3 °C 1015.1 hPa SSE 14.5 km/h 19.3 km/h 52% 0 mm
15:18 29.1 °C 17.9 °C 1015.1 hPa SE 8 km/h 17.7 km/h 51% 0 mm
15:23 28.9 °C 18.1 °C 1015.1 hPa SW 6.4 km/h 12.9 km/h 52% 0 mm
15:28 28.9 °C 18.7 °C 1015.1 hPa South 4.8 km/h 11.3 km/h 54% 0 mm
15:33 28.9 °C 17.7 °C 1014.8 hPa SSW 16.1 km/h 16.1 km/h 51% 0 mm
15:38 29.2 °C 18.6 °C 1014.8 hPa SSW 9.7 km/h 12.9 km/h 53% 0 mm
15:43 29.6 °C 18.1 °C 1014.8 hPa SSW 8 km/h 17.7 km/h 50% 0 mm
15:48 29.6 °C 18.4 °C 1014.8 hPa South 11.3 km/h 14.5 km/h 51% 0 mm
15:53 29.5 °C 18 °C 1014.8 hPa SW 6.4 km/h 20.9 km/h 50% 0 mm
15:58 29.6 °C 18.1 °C 1014.8 hPa SW 6.4 km/h 19.3 km/h 50% 0 mm
16:04 29.4 °C 17.6 °C 1014.8 hPa SSE 17.7 km/h 24.1 km/h 49% 0 mm
16:09 29.3 °C 17.8 °C 1014.4 hPa South 14.5 km/h 19.3 km/h 50% 0 mm
16:14 29.3 °C 17.8 °C 1014.4 hPa South 14.5 km/h 22.5 km/h 50% 0 mm
16:19 29.3 °C 18.1 °C 1014.1 hPa SSE 14.5 km/h 19.3 km/h 51% 0 mm
16:24 29.2 °C 18 °C 1014.1 hPa SSE 11.3 km/h 16.1 km/h 51% 0 mm
16:29 29.1 °C 17.7 °C 1014.1 hPa SSW 8 km/h 17.7 km/h 50% 0 mm
16:34 29.1 °C 17.9 °C 1014.1 hPa SSE 9.7 km/h 12.9 km/h 51% 0 mm
16:39 28.9 °C 17.8 °C 1014.1 hPa SSW 11.3 km/h 19.3 km/h 51% 0 mm
16:44 28.8 °C 18 °C 1014.1 hPa SE 8 km/h 12.9 km/h 52% 0 mm
16:49 28.9 °C 18.1 °C 1014.1 hPa SW 9.7 km/h 17.7 km/h 52% 0 mm
16:54 28.9 °C 18.1 °C 1014.1 hPa South 9.7 km/h 20.9 km/h 52% 0 mm
16:59 29.1 °C 18.2 °C 1013.8 hPa South 16.1 km/h 16.1 km/h 52% 0 mm
17:04 29.1 °C 18.6 °C 1013.8 hPa SSE 9.7 km/h 16.1 km/h 53% 0 mm
17:09 29.2 °C 18.6 °C 1013.8 hPa South 8 km/h 14.5 km/h 53% 0 mm
17:14 29.2 °C 18 °C 1013.8 hPa SSW 6.4 km/h 12.9 km/h 51% 0 mm
17:19 29.3 °C 18.1 °C 1013.8 hPa SW 6.4 km/h 17.7 km/h 51% 0 mm
17:24 29.5 °C 18.3 °C 1013.8 hPa SSW 11.3 km/h 14.5 km/h 51% 0 mm
17:29 29.5 °C 18.3 °C 1013.8 hPa SSE 3.2 km/h 14.5 km/h 51% 0 mm
17:34 29.7 °C 18.5 °C 1013.8 hPa South 11.3 km/h 14.5 km/h 51% 0 mm
17:39 29.6 °C 19 °C 1013.8 hPa SSW 8 km/h 14.5 km/h 53% 0 mm
17:44 29.2 °C 18.7 °C 1013.8 hPa South 9.7 km/h 19.3 km/h 53% 0 mm
17:49 28.9 °C 18.7 °C 1013.8 hPa SE 12.9 km/h 16.1 km/h 54% 0 mm
17:54 28.9 °C 18.9 °C 1013.8 hPa SSE 16.1 km/h 20.9 km/h 55% 0 mm
17:59 28.9 °C 18.7 °C 1013.8 hPa South 6.4 km/h 19.3 km/h 54% 0 mm
18:04 28.9 °C 18.1 °C 1013.8 hPa SSE 14.5 km/h 16.1 km/h 52% 0 mm
18:09 29.3 °C 19 °C 1013.8 hPa South 9.7 km/h 9.7 km/h 54% 0 mm
18:14 29.4 °C 18.8 °C 1013.8 hPa SE 9.7 km/h 17.7 km/h 53% 0 mm
18:19 29.4 °C 18.5 °C 1013.8 hPa SSE 11.3 km/h 16.1 km/h 52% 0 mm
18:24 29.4 °C 18.9 °C 1013.8 hPa South 6.4 km/h 16.1 km/h 53% 0 mm
18:30 29.4 °C 18.5 °C 1013.4 hPa SSW 9.7 km/h 17.7 km/h 52% 0 mm
18:35 29.3 °C 18.4 °C 1013.4 hPa SSW 6.4 km/h 16.1 km/h 52% 0 mm
18:40 29.3 °C 18.7 °C 1013.4 hPa SSE 8 km/h 14.5 km/h 53% 0 mm
18:45 29.3 °C 18.8 °C 1013.4 hPa SSW 14.5 km/h 14.5 km/h 53% 0 mm
18:50 29.3 °C 18.8 °C 1013.4 hPa SSE 11.3 km/h 11.3 km/h 53% 0 mm
18:55 29.2 °C 18.6 °C 1013.4 hPa SW 9.7 km/h 16.1 km/h 53% 0 mm
19:00 29.1 °C 18.2 °C 1013.4 hPa WSW 9.7 km/h 12.9 km/h 52% 0 mm
19:05 29.1 °C 18.8 °C 1013.4 hPa SSW 4.8 km/h 8 km/h 54% 0 mm
19:10 28.9 °C 18.4 °C 1013.4 hPa SW 9.7 km/h 9.7 km/h 53% 0 mm
19:15 28.8 °C 18.9 °C 1013.4 hPa SSW 3.2 km/h 11.3 km/h 55% 0 mm
19:20 28.7 °C 18.8 °C 1013.4 hPa SSW 3.2 km/h 8 km/h 55% 0 mm
19:25 28.8 °C 18.8 °C 1013.4 hPa SSE 3.2 km/h 8 km/h 55% 0 mm
19:30 28.8 °C 18.9 °C 1013.4 hPa South 1.6 km/h 6.4 km/h 55% 0 mm
19:35 28.7 °C 19.3 °C 1013.1 hPa SSW 3.2 km/h 4.8 km/h 57% 0 mm
19:40 28.7 °C 19.1 °C 1013.1 hPa South 4.8 km/h 6.4 km/h 56% 0 mm
19:46 28.6 °C 18.9 °C 1013.1 hPa SW 1.6 km/h 3.2 km/h 56% 0 mm
19:51 28.3 °C 19 °C 1013.1 hPa SSW 3.2 km/h 6.4 km/h 57% 0 mm
19:56 28 °C 19 °C 1013.1 hPa SSW 1.6 km/h 3.2 km/h 58% 0 mm
20:01 27.9 °C 19.4 °C 1013.4 hPa SE 1.6 km/h 1.6 km/h 60% 0 mm
20:06 27.6 °C 19.2 °C 1013.4 hPa SE 1.6 km/h 3.2 km/h 60% 0 mm
20:11 27.3 °C 19.4 °C 1013.4 hPa South 1.6 km/h 1.6 km/h 62% 0 mm
20:16 27.1 °C 19.2 °C 1013.4 hPa Calm   1.6 km/h 62% 0 mm
20:21 26.8 °C 18.9 °C 1013.4 hPa Calm   1.6 km/h 62% 0 mm
20:26 26.5 °C 19.2 °C 1013.4 hPa Calm     64% 0 mm
20:31 26.2 °C 18.9 °C 1013.4 hPa Calm     64% 0 mm
20:36 25.9 °C 19.1 °C 1013.4 hPa Calm     66% 0 mm
20:41 25.7 °C 18.8 °C 1013.4 hPa Calm   1.6 km/h 66% 0 mm
20:46 25.4 °C 18.9 °C 1013.4 hPa Calm   1.6 km/h 67% 0 mm
20:51 25.2 °C 18.6 °C 1013.4 hPa SE 1.6 km/h 1.6 km/h 67% 0 mm
20:56 25 °C 18.7 °C 1013.4 hPa SE 3.2 km/h 4.8 km/h 68% 0 mm
21:01 24.7 °C 18.4 °C 1013.4 hPa ESE 3.2 km/h 3.2 km/h 68% 0 mm
21:06 24.4 °C 18.3 °C 1013.4 hPa SE 3.2 km/h 3.2 km/h 69% 0 mm
21:11 24.3 °C 18.3 °C 1013.8 hPa SE 1.6 km/h 3.2 km/h 69% 0 mm
21:16 24.2 °C 18.2 °C 1013.4 hPa SE 4.8 km/h 4.8 km/h 69% 0 mm
21:21 24.3 °C 18.2 °C 1013.4 hPa SE 3.2 km/h 3.2 km/h 69% 0 mm
21:26 24.1 °C 18.2 °C 1013.8 hPa SE 1.6 km/h 3.2 km/h 70% 0 mm
21:31 23.9 °C 18.1 °C 1013.8 hPa SSE 1.6 km/h 1.6 km/h 70% 0 mm
21:36 23.8 °C 18 °C 1013.8 hPa Calm   1.6 km/h 70% 0 mm
21:41 23.6 °C 18.1 °C 1013.8 hPa Calm     71% 0 mm
21:46 23.4 °C 18.1 °C 1013.8 hPa ESE 3.2 km/h 3.2 km/h 72% 0 mm
21:51 23.3 °C 18 °C 1013.8 hPa SE 1.6 km/h 4.8 km/h 72% 0 mm
21:57 23.1 °C 17.9 °C 1013.8 hPa SSE 1.6 km/h 3.2 km/h 73% 0 mm
22:02 22.9 °C 18 °C 1013.8 hPa SE 3.2 km/h 4.8 km/h 74% 0 mm
22:07 22.8 °C 17.9 °C 1014.1 hPa South 3.2 km/h 4.8 km/h 74% 0 mm
22:12 22.9 °C 18.2 °C 1014.1 hPa SSE 3.2 km/h 3.2 km/h 75% 0 mm
22:17 22.9 °C 18.2 °C 1014.1 hPa SE 3.2 km/h 4.8 km/h 75% 0 mm
22:22 22.9 °C 18.1 °C 1014.1 hPa SE 3.2 km/h 3.2 km/h 74% 0 mm
22:27 22.9 °C 18 °C 1014.1 hPa SE 1.6 km/h 3.2 km/h 74% 0 mm
22:32 22.9 °C 18 °C 1014.1 hPa SE 1.6 km/h 3.2 km/h 74% 0 mm
22:37 23 °C 18.1 °C 1014.1 hPa SSE 1.6 km/h 3.2 km/h 74% 0 mm
22:42 22.9 °C 18.1 °C 1014.1 hPa SE 3.2 km/h 3.2 km/h 74% 0 mm
22:47 22.9 °C 18 °C 1014.1 hPa SSE 1.6 km/h 3.2 km/h 74% 0 mm
22:52 22.9 °C 18 °C 1014.1 hPa South 1.6 km/h 3.2 km/h 74% 0 mm
22:57 22.8 °C 17.9 °C 1014.4 hPa SE 3.2 km/h 3.2 km/h 74% 0 mm
23:02 22.8 °C 18.1 °C 1014.1 hPa SSE 3.2 km/h 3.2 km/h 75% 0 mm
23:07 22.7 °C 18.1 °C 1014.1 hPa SSW 1.6 km/h 3.2 km/h 75% 0 mm
23:12 22.8 °C 18.1 °C 1014.1 hPa South 1.6 km/h 1.6 km/h 75% 0 mm
23:17 22.9 °C 18.4 °C 1014.1 hPa SSE 3.2 km/h 4.8 km/h 76% 0 mm
23:22 23.1 °C 18.4 °C 1014.1 hPa South 3.2 km/h 4.8 km/h 75% 0 mm
23:27 23.1 °C 18.4 °C 1014.1 hPa SE 1.6 km/h 4.8 km/h 75% 0 mm
23:32 22.9 °C 18.3 °C 1014.4 hPa SSE 1.6 km/h 3.2 km/h 75% 0 mm
23:37 22.6 °C 18.4 °C 1014.4 hPa SE 1.6 km/h 3.2 km/h 77% 0 mm
23:43 22.4 °C 18.4 °C 1014.4 hPa SE 3.2 km/h 3.2 km/h 78% 0 mm
23:48 22.5 °C 18.5 °C 1014.1 hPa South 1.6 km/h 4.8 km/h 78% 0 mm
23:53 22.6 °C 18.6 °C 1014.4 hPa SSE 3.2 km/h 3.2 km/h 78% 0 mm
23:58 22.6 °C 18.4 °C 1014.4 hPa South 3.2 km/h 3.2 km/h 77% 0 mm
Compliments of Weather Underground